createdAt,value
2019-04-21T12:15:18.838Z,82.30
2019-04-21T12:16:00.936Z,82.00
2019-04-21T12:16:44.586Z,82.30
2019-04-21T12:17:25.961Z,82.80
2019-04-21T12:18:10.090Z,82.50
2019-04-21T12:18:52.517Z,82.50
2019-04-21T12:19:36.759Z,82.70
2019-04-21T12:20:40.284Z,82.80
2019-04-21T12:21:23.305Z,82.90
2019-04-21T12:22:23.624Z,83.90
2019-04-21T12:23:02.760Z,84.50
2019-04-21T12:23:44.669Z,85.70
2019-04-21T12:24:27.036Z,85.20
2019-04-21T12:25:11.141Z,85.50
2019-04-21T12:25:55.080Z,86.00
2019-04-21T12:26:38.016Z,86.60
2019-04-21T12:27:22.273Z,87.10
2019-04-21T12:28:03.645Z,87.40
2019-04-21T12:28:44.326Z,87.40
2019-04-21T12:29:26.944Z,87.30
2019-04-21T12:30:09.466Z,87.30
2019-04-21T12:30:55.797Z,87.10
2019-04-21T12:31:53.809Z,86.90
2019-04-21T12:32:51.941Z,87.10
2019-04-21T12:33:48.112Z,87.30
2019-04-21T12:34:30.208Z,87.40
2019-04-21T12:35:12.485Z,87.60
2019-04-21T12:35:53.738Z,87.70
2019-04-21T12:36:35.824Z,87.70
2019-04-21T12:37:17.078Z,87.70
2019-04-21T12:37:59.056Z,87.60
2019-04-21T12:38:48.848Z,87.50
2019-04-21T12:39:25.070Z,87.60
2019-04-21T12:40:06.899Z,87.70
2019-04-21T12:40:48.570Z,87.60
2019-04-21T12:41:30.745Z,87.70
2019-04-21T12:42:14.447Z,87.70
2019-04-21T12:42:56.697Z,87.70
2019-04-21T12:43:38.914Z,87.60
2019-04-21T12:44:22.495Z,87.50
2019-04-21T12:45:03.645Z,87.50
2019-04-21T12:45:44.437Z,87.50
2019-04-21T12:46:25.750Z,87.40
2019-04-21T12:47:07.842Z,87.40
2019-04-21T12:47:52.418Z,87.40
2019-04-21T12:48:35.730Z,87.40
2019-04-21T12:49:17.888Z,87.40
2019-04-21T12:50:00.660Z,87.60
2019-04-21T12:50:41.792Z,87.60
2019-04-21T12:51:25.995Z,87.80
2019-04-21T12:52:07.090Z,87.80
2019-04-21T12:52:49.631Z,87.50
2019-04-21T12:53:31.843Z,87.30
2019-04-21T12:54:12.943Z,87.20
2019-04-21T12:54:53.941Z,87.10
2019-04-21T12:55:38.402Z,86.90
2019-04-21T12:56:18.211Z,86.80
2019-04-21T12:57:01.256Z,86.70
2019-04-21T12:57:43.440Z,86.60
2019-04-21T12:58:25.484Z,86.50
2019-04-21T12:59:06.321Z,86.50
2019-04-21T12:59:48.727Z,86.50
2019-04-21T13:00:31.459Z,86.50
2019-04-21T13:01:14.713Z,86.50
2019-04-21T13:01:56.930Z,86.40
2019-04-21T13:02:38.062Z,86.50
2019-04-21T13:03:21.797Z,86.40
2019-04-21T13:04:03.924Z,86.30
2019-04-21T13:04:46.098Z,86.30
2019-04-21T13:05:29.520Z,86.30
2019-04-21T13:06:13.769Z,86.20
2019-04-21T13:06:55.884Z,86.20
2019-04-21T13:07:37.756Z,86.10
2019-04-21T13:08:21.640Z,86.30
2019-04-21T13:09:07.009Z,86.20
2019-04-21T13:09:44.681Z,87.00
2019-04-21T13:10:26.410Z,86.20
2019-04-21T13:11:09.399Z,86.20
2019-04-21T13:11:55.091Z,86.20
2019-04-21T13:12:36.052Z,86.20
2019-04-21T13:13:17.641Z,86.20
2019-04-21T13:13:59.767Z,86.10
2019-04-21T13:14:42.297Z,86.20
2019-04-21T13:15:22.939Z,86.20
2019-04-21T13:16:09.453Z,86.10
2019-04-21T13:16:51.869Z,86.20
2019-04-21T13:17:33.167Z,87.00
2019-04-21T13:18:18.451Z,86.30
2019-04-21T13:18:59.569Z,86.30
2019-04-21T13:19:43.145Z,86.20
2019-04-21T13:20:25.295Z,86.30
2019-04-21T13:21:07.604Z,86.20
2019-04-21T13:21:49.867Z,86.20
2019-04-21T13:22:32.088Z,86.20
2019-04-21T13:23:14.933Z,86.30
2019-04-21T13:23:58.798Z,86.20
2019-04-21T13:24:40.008Z,86.30
2019-04-21T13:25:23.508Z,86.30
2019-04-21T13:26:05.867Z,86.20
2019-04-21T13:26:53.609Z,86.20
2019-04-21T13:27:32.737Z,86.40
2019-04-21T13:28:16.531Z,86.30
2019-04-21T13:28:58.417Z,86.30
2019-04-21T13:29:42.161Z,86.40
2019-04-21T13:30:24.168Z,86.40
2019-04-21T13:31:08.487Z,86.40
2019-04-21T13:31:52.094Z,86.20
2019-04-21T13:32:33.498Z,86.30
2019-04-21T13:33:15.439Z,86.00
2019-04-21T13:33:57.812Z,86.00
2019-04-21T13:34:42.134Z,85.90
2019-04-21T13:35:26.629Z,85.90
2019-04-21T13:36:07.680Z,85.90
2019-04-21T13:36:49.829Z,85.80
2019-04-21T13:37:33.279Z,85.70
2019-04-21T13:38:24.938Z,85.70
2019-04-21T13:39:45.750Z,85.60
2019-04-21T13:40:35.940Z,85.60
2019-04-21T13:41:33.856Z,85.60
2019-04-21T13:42:16.077Z,85.50
2019-04-21T13:42:55.019Z,85.40
2019-04-21T13:43:33.105Z,85.50
2019-04-21T13:44:19.617Z,85.40
2019-04-21T13:45:02.409Z,85.40
2019-04-21T13:45:45.792Z,85.30
2019-04-21T13:46:27.201Z,85.40
2019-04-21T13:47:08.517Z,85.50
2019-04-21T13:47:50.371Z,85.40
2019-04-21T13:48:32.647Z,85.40
2019-04-21T13:49:17.236Z,85.40
2019-04-21T13:50:02.680Z,85.50
2019-04-21T13:50:43.560Z,85.40
2019-04-21T13:51:25.453Z,85.50
2019-04-21T13:52:11.042Z,85.40
2019-04-21T13:52:52.110Z,85.30
2019-04-21T13:53:34.958Z,85.40
2019-04-21T13:54:17.853Z,85.40
2019-04-21T13:55:01.267Z,85.40
2019-04-21T13:55:42.606Z,85.40
2019-04-21T13:56:26.705Z,85.40
2019-04-21T13:57:08.622Z,85.40
2019-04-21T13:57:50.508Z,85.40
2019-04-21T13:58:32.548Z,85.40
2019-04-21T13:59:14.442Z,85.40
2019-04-21T13:59:57.177Z,85.40
2019-04-21T14:00:42.098Z,85.40
2019-04-21T14:01:23.505Z,85.40
2019-04-21T14:02:06.734Z,85.50
2019-04-21T14:02:49.084Z,85.60
2019-04-21T14:03:35.377Z,85.60
2019-04-21T14:04:19.714Z,85.60
2019-04-21T14:05:03.440Z,85.60
2019-04-21T14:05:46.515Z,85.60
2019-04-21T14:06:27.781Z,85.50
2019-04-21T14:07:10.013Z,85.60
2019-04-21T14:07:52.549Z,85.60
2019-04-21T14:08:33.664Z,85.70
2019-04-21T14:09:17.720Z,85.70
2019-04-21T14:10:04.763Z,85.70
2019-04-21T14:10:47.213Z,85.70
2019-04-21T14:11:29.265Z,85.90
2019-04-21T14:12:11.635Z,85.80
2019-04-21T14:12:54.126Z,85.90
2019-04-21T14:13:36.463Z,85.10
2019-04-21T14:14:20.605Z,85.80
2019-04-21T14:15:02.310Z,85.80
2019-04-21T14:15:46.257Z,85.80
2019-04-21T14:16:29.538Z,85.90
2019-04-21T14:17:15.076Z,85.90
2019-04-21T14:17:56.887Z,85.80
2019-04-21T14:18:38.548Z,85.90
2019-04-21T14:19:21.356Z,85.80
2019-04-21T14:20:03.424Z,85.70
2019-04-21T14:20:44.974Z,85.80
2019-04-21T14:21:27.228Z,85.90
2019-04-21T14:22:13.917Z,85.90
2019-04-21T14:23:10.269Z,86.00
2019-04-21T14:23:46.048Z,85.90
2019-04-21T14:24:28.735Z,85.90
2019-04-21T14:25:15.478Z,85.90
2019-04-21T14:26:06.488Z,85.90
2019-04-21T14:26:56.163Z,85.90
2019-04-21T14:27:38.557Z,86.00
2019-04-21T14:28:22.020Z,86.00
2019-04-21T14:29:03.616Z,86.10
2019-04-21T14:29:53.401Z,86.20
2019-04-21T14:30:36.399Z,86.10
2019-04-21T14:31:17.354Z,86.10
2019-04-21T14:32:00.458Z,86.20
2019-04-21T14:32:42.077Z,86.10
2019-04-21T14:33:23.729Z,86.20
2019-04-21T14:34:06.438Z,86.20
2019-04-21T14:34:50.212Z,86.20
2019-04-21T14:35:32.803Z,86.20
2019-04-21T14:36:16.793Z,86.20
2019-04-21T14:36:56.900Z,86.20
2019-04-21T14:37:40.460Z,86.20
2019-04-21T14:38:22.766Z,86.30
2019-04-21T14:39:07.958Z,86.40
2019-04-21T14:39:57.867Z,86.40
2019-04-21T14:40:33.330Z,86.50
2019-04-21T14:41:14.548Z,86.60
2019-04-21T14:41:58.336Z,86.60
2019-04-21T14:42:40.080Z,86.60
2019-04-21T14:43:24.333Z,86.70
2019-04-21T14:44:06.830Z,86.60
2019-04-21T14:44:49.029Z,86.70
2019-04-21T14:45:42.837Z,87.30
2019-04-21T14:46:33.269Z,86.80
2019-04-21T14:47:42.212Z,86.70
2019-04-21T14:48:43.145Z,86.70
2019-04-21T14:49:44.925Z,86.80
2019-04-21T14:50:44.296Z,86.80
2019-04-21T14:51:45.397Z,86.80
2019-04-21T14:52:30.765Z,86.20
2019-04-21T14:53:16.044Z,86.70
2019-04-21T14:54:24.781Z,86.70
2019-04-21T14:55:10.658Z,86.70
2019-04-21T14:55:51.597Z,86.70
2019-04-21T14:56:33.488Z,86.60
2019-04-21T14:57:18.896Z,86.60
2019-04-21T14:58:01.189Z,86.50
2019-04-21T14:58:43.206Z,86.50
2019-04-21T14:59:26.949Z,86.30
2019-04-21T15:00:09.212Z,86.30
2019-04-21T15:01:10.405Z,86.30
2019-04-21T15:01:51.904Z,86.30
2019-04-21T15:02:35.998Z,86.30
2019-04-21T15:03:21.630Z,86.30
2019-04-21T15:04:07.984Z,86.30
2019-04-21T15:04:53.497Z,86.30
2019-04-21T15:05:35.508Z,86.30
2019-04-21T15:06:16.461Z,86.30
2019-04-21T15:06:57.428Z,86.20
2019-04-21T15:07:39.312Z,86.20
2019-04-21T15:08:21.470Z,86.10
2019-04-21T15:09:09.265Z,86.20
2019-04-21T15:10:02.525Z,86.10
2019-04-21T15:10:35.208Z,86.10
2019-04-21T15:11:18.021Z,86.10
2019-04-21T15:12:00.102Z,86.10
2019-04-21T15:12:41.560Z,86.10
2019-04-21T15:13:25.835Z,86.00
2019-04-21T15:14:08.222Z,86.10
2019-04-21T15:14:53.781Z,86.10
2019-04-21T15:15:38.045Z,86.10
2019-04-21T15:16:19.035Z,86.20
2019-04-21T15:17:00.855Z,86.20
2019-04-21T15:17:44.035Z,86.20
2019-04-21T15:18:26.497Z,85.70
2019-04-21T15:19:08.490Z,86.30
2019-04-21T15:19:59.678Z,86.30
2019-04-21T15:20:34.227Z,86.30
2019-04-21T15:21:17.567Z,86.30
2019-04-21T15:21:58.977Z,86.40
2019-04-21T15:22:44.269Z,86.40
2019-04-21T15:23:28.696Z,86.60
2019-04-21T15:24:12.162Z,86.60
2019-04-21T15:24:54.220Z,86.60
2019-04-21T15:25:36.252Z,86.60
2019-04-21T15:26:18.289Z,86.60
2019-04-21T15:26:59.275Z,86.60
2019-04-21T15:27:41.151Z,86.60
2019-04-21T15:28:25.379Z,86.70
2019-04-21T15:29:08.865Z,86.70
2019-04-21T15:29:53.014Z,86.70
2019-04-21T15:30:36.570Z,86.70
2019-04-21T15:31:24.157Z,86.80
2019-04-21T15:32:00.906Z,86.80
2019-04-21T15:32:42.306Z,86.80
2019-04-21T15:33:24.415Z,86.70
2019-04-21T15:34:07.644Z,86.80
2019-04-21T15:34:52.039Z,86.90
2019-04-21T15:35:33.498Z,86.90
2019-04-21T15:36:16.868Z,86.90
2019-04-21T15:36:59.940Z,86.90
2019-04-21T15:37:46.223Z,87.10
2019-04-21T15:38:33.993Z,87.10
2019-04-21T15:39:16.045Z,87.10
2019-04-21T15:40:17.337Z,87.20
2019-04-21T15:40:53.289Z,87.90
2019-04-21T15:41:30.517Z,87.20
2019-04-21T15:42:13.109Z,87.20
2019-04-21T15:42:57.292Z,87.20
2019-04-21T15:43:42.588Z,87.30
2019-04-21T15:44:27.059Z,87.30
2019-04-21T15:45:10.513Z,87.40
2019-04-21T15:46:00.691Z,87.40
2019-04-21T15:46:41.848Z,87.40
2019-04-21T15:47:23.972Z,87.60
2019-04-21T15:48:11.887Z,87.50
2019-04-21T15:48:55.410Z,87.40
2019-04-21T15:50:01.114Z,87.50
2019-04-21T15:50:35.676Z,87.50
2019-04-21T15:51:17.835Z,87.70
2019-04-21T15:52:02.097Z,87.70
2019-04-21T15:52:43.474Z,87.60
2019-04-21T15:53:27.855Z,87.50
2019-04-21T15:54:08.878Z,87.80
2019-04-21T15:54:50.363Z,87.70
2019-04-21T15:56:08.711Z,87.80
2019-04-21T15:56:56.891Z,87.80
2019-04-21T15:58:10.343Z,87.90
2019-04-21T15:59:08.961Z,88.00
2019-04-21T15:59:55.378Z,88.00
2019-04-21T16:00:52.507Z,88.10
2019-04-21T16:01:56.879Z,88.20
2019-04-21T16:02:42.788Z,88.20
2019-04-21T16:03:24.733Z,88.30
2019-04-21T16:04:06.589Z,88.30
2019-04-21T16:04:50.589Z,88.40
2019-04-21T16:05:32.974Z,88.40
2019-04-21T16:06:17.378Z,88.50
2019-04-21T16:06:59.383Z,88.60
2019-04-21T16:07:40.625Z,88.60
2019-04-21T16:08:22.749Z,88.60
2019-04-21T16:09:06.422Z,89.30
2019-04-21T16:09:48.132Z,88.60
2019-04-21T16:10:41.470Z,88.70
2019-04-21T16:11:15.670Z,88.80
2019-04-21T16:11:57.957Z,88.70
2019-04-21T16:12:40.155Z,88.80
2019-04-21T16:13:25.697Z,88.80
2019-04-21T16:14:07.927Z,88.80
2019-04-21T16:14:50.189Z,88.80
2019-04-21T16:15:34.579Z,88.90
2019-04-21T16:16:16.738Z,88.90
2019-04-21T16:17:01.188Z,88.90
2019-04-21T16:17:43.446Z,89.00
2019-04-21T16:18:24.604Z,88.90
2019-04-21T16:19:06.127Z,88.90
2019-04-21T16:19:48.024Z,89.00
2019-04-21T16:20:30.004Z,89.10
2019-04-21T16:21:11.715Z,89.00
2019-04-21T16:21:54.747Z,89.00
2019-04-21T16:22:39.326Z,89.20
2019-04-21T16:23:20.565Z,88.50
2019-04-21T16:24:02.619Z,86.60
2019-04-21T16:24:43.978Z,84.00
2019-04-21T16:25:26.722Z,82.10
2019-04-21T16:26:08.712Z,80.50
2019-04-21T16:26:50.859Z,79.00
2019-04-21T16:27:35.575Z,77.80
2019-04-21T16:28:19.223Z,76.50
2019-04-21T16:29:02.912Z,74.60
2019-04-21T16:29:45.742Z,73.50
2019-04-21T16:30:26.858Z,72.20
2019-04-21T16:31:14.242Z,71.10
2019-04-21T16:31:55.232Z,70.30
2019-04-21T16:32:39.458Z,69.20
2019-04-21T16:33:20.972Z,68.40
2019-04-21T16:34:03.120Z,67.40
2019-04-21T16:34:50.744Z,67.10
2019-04-21T16:35:26.724Z,66.60
2019-04-21T16:36:10.328Z,66.00
2019-04-21T16:36:49.804Z,65.40
2019-04-21T16:37:31.862Z,64.90
2019-04-21T16:38:13.357Z,65.10
2019-04-21T16:38:55.625Z,63.80
2019-04-21T16:39:38.563Z,63.00
2019-04-21T16:40:21.307Z,62.40
2019-04-21T16:41:06.472Z,61.80
2019-04-21T16:41:46.623Z,61.00
2019-04-21T16:42:30.302Z,60.30
2019-04-21T16:43:12.258Z,59.90
2019-04-21T16:43:55.397Z,59.40
2019-04-21T16:44:38.907Z,59.00
2019-04-21T16:45:22.938Z,58.70
2019-04-21T16:46:06.832Z,58.20
2019-04-21T16:46:50.035Z,58.00
2019-04-21T16:47:32.082Z,57.50
2019-04-21T16:48:15.014Z,57.30
2019-04-21T16:48:55.942Z,57.00
2019-04-21T16:49:38.185Z,56.60
2019-04-21T16:50:21.379Z,56.40
2019-04-21T16:51:22.115Z,56.10
2019-04-21T16:52:18.321Z,55.70
2019-04-21T16:53:10.177Z,55.40
2019-04-21T16:53:59.713Z,55.10
2019-04-21T16:54:41.921Z,54.90
2019-04-21T16:55:30.775Z,54.60
2019-04-21T16:56:24.775Z,54.50
2019-04-21T16:57:23.884Z,54.50
2019-04-21T16:58:26.613Z,54.30
2019-04-21T16:59:17.196Z,54.00
2019-04-21T17:00:02.475Z,53.70
2019-04-21T17:00:53.935Z,53.60
2019-04-21T17:01:32.133Z,53.50
2019-04-21T17:02:14.415Z,53.20
2019-04-21T17:02:56.570Z,53.20
2019-04-21T17:03:37.083Z,53.00
2019-04-21T17:04:20.472Z,52.90
2019-04-21T17:05:02.512Z,52.80
2019-04-21T17:05:45.904Z,52.90
2019-04-21T17:06:29.225Z,52.80
2019-04-21T17:07:11.348Z,52.60
2019-04-21T17:07:55.659Z,52.50
2019-04-21T17:08:38.847Z,52.50
2019-04-21T17:09:20.801Z,52.70
2019-04-21T17:10:02.550Z,52.40
2019-04-21T17:10:57.268Z,52.50
2019-04-21T17:11:31.584Z,52.40
2019-04-21T17:12:13.982Z,52.30
2019-04-21T17:12:53.722Z,52.20
2019-04-21T17:13:35.832Z,52.00
2019-04-21T17:15:18.869Z,52.00
2019-04-21T17:15:59.702Z,52.00
2019-04-21T17:16:24.410Z,52.00
2019-04-21T17:17:02.923Z,51.80
2019-04-21T17:17:32.300Z,51.70
2019-04-21T17:18:10.169Z,51.60
2019-04-21T17:18:47.636Z,51.60
2019-04-21T17:19:25.040Z,51.60
2019-04-21T17:20:15.669Z,51.60
2019-04-21T17:20:49.211Z,51.70
2019-04-21T17:21:28.298Z,51.50
2019-04-21T17:22:10.553Z,51.40
2019-04-21T17:22:51.618Z,51.30
2019-04-21T17:23:37.573Z,51.20
2019-04-21T17:24:20.173Z,51.20
2019-04-21T17:25:04.413Z,51.20
2019-04-21T17:25:45.392Z,51.10
2019-04-21T17:26:28.878Z,51.10
2019-04-21T17:27:11.100Z,51.10
2019-04-21T17:27:54.500Z,50.90
2019-04-21T17:28:36.349Z,51.00
2019-04-21T17:29:18.643Z,51.00
2019-04-21T17:30:01.189Z,50.80
2019-04-21T17:30:42.293Z,50.70
2019-04-21T17:31:24.475Z,50.60
2019-04-21T17:32:07.932Z,50.60
2019-04-21T17:32:49.819Z,51.20
2019-04-21T17:33:30.646Z,50.40
2019-04-21T17:34:16.424Z,50.40
2019-04-21T17:34:54.258Z,50.30
2019-04-21T17:35:36.384Z,50.20
2019-04-21T17:36:17.117Z,50.10
2019-04-21T17:36:59.241Z,50.80
2019-04-21T17:37:42.331Z,50.00
2019-04-21T17:38:23.890Z,49.90
2019-04-21T17:39:07.121Z,49.80
2019-04-21T17:39:49.985Z,49.70
2019-04-21T17:40:31.604Z,49.70
2019-04-21T17:41:23.669Z,49.60
2019-04-21T17:42:10.957Z,49.70
2019-04-21T17:42:46.423Z,49.60
2019-04-21T17:43:21.653Z,49.60
2019-04-21T17:44:02.636Z,49.60
2019-04-21T17:44:43.577Z,49.60
2019-04-21T17:45:24.841Z,49.60
2019-04-21T17:46:06.867Z,49.50
2019-04-21T17:46:54.483Z,49.50
2019-04-21T17:47:41.578Z,49.50
2019-04-21T17:48:15.913Z,49.40
2019-04-21T17:48:57.312Z,49.40
2019-04-21T17:49:39.277Z,49.40
2019-04-21T17:50:47.668Z,49.30
2019-04-21T17:52:01.067Z,49.50
2019-04-21T17:52:55.530Z,49.50
2019-04-21T17:53:46.759Z,49.30
2019-04-21T17:54:35.993Z,49.30
2019-04-21T17:55:18.380Z,49.40
2019-04-21T17:56:19.155Z,49.40
2019-04-21T17:57:08.911Z,49.50
2019-04-21T17:57:36.912Z,49.90
2019-04-21T17:58:14.996Z,49.30
2019-04-21T17:59:06.178Z,49.30
2019-04-21T17:59:58.812Z,49.30
2019-04-21T18:00:55.066Z,49.10
2019-04-21T18:01:20.866Z,49.10
2019-04-21T18:02:02.422Z,49.10
2019-04-21T18:02:44.488Z,49.10
2019-04-21T18:03:30.626Z,49.10
2019-04-21T18:04:12.624Z,49.00
2019-04-21T18:04:57.703Z,49.10
2019-04-21T18:05:34.654Z,49.10
2019-04-21T18:06:10.110Z,49.00
2019-04-21T18:07:27.549Z,49.00
2019-04-21T18:08:11.358Z,48.90
2019-04-21T18:08:51.953Z,49.00
2019-04-21T18:09:37.010Z,48.90
2019-04-21T18:10:11.543Z,49.00
2019-04-21T18:10:53.463Z,48.90
2019-04-21T18:11:47.648Z,48.80
2019-04-21T18:12:24.116Z,48.70
2019-04-21T18:12:56.992Z,48.70
2019-04-21T18:13:30.909Z,48.70
2019-04-21T18:14:15.965Z,48.60
2019-04-21T18:15:16.331Z,48.70
2019-04-21T18:15:56.751Z,48.60
2019-04-21T18:16:31.581Z,48.60
2019-04-21T18:17:06.554Z,48.70
2019-04-21T18:17:50.226Z,48.70
2019-04-21T18:18:32.923Z,48.50
2019-04-21T18:19:15.065Z,48.60
2019-04-21T18:19:59.587Z,48.60
2019-04-21T18:20:43.995Z,48.50
2019-04-21T18:21:34.686Z,48.50
2019-04-21T18:22:38.616Z,48.50
2019-04-21T18:23:39.493Z,48.50
2019-04-21T18:24:17.689Z,48.30
2019-04-21T18:25:01.016Z,48.30
2019-04-21T18:25:47.427Z,48.30
2019-04-21T18:26:35.712Z,48.40
2019-04-21T18:27:08.958Z,48.30
2019-04-21T18:27:50.549Z,48.30
2019-04-21T18:28:32.529Z,48.20
2019-04-21T18:29:13.674Z,48.20
2019-04-21T18:29:55.228Z,48.20
2019-04-21T18:30:58.369Z,48.20
2019-04-21T18:31:45.204Z,48.90
2019-04-21T18:32:26.398Z,48.30
2019-04-21T18:33:11.966Z,48.70
2019-04-21T18:33:59.894Z,48.10
2019-04-21T18:34:57.540Z,48.10
2019-04-21T18:35:41.867Z,48.20
2019-04-21T18:36:38.363Z,48.40
2019-04-21T18:37:47.593Z,48.10
2019-04-21T18:38:53.093Z,48.80
2019-04-21T18:39:38.183Z,48.20
2019-04-21T18:40:12.313Z,48.20
2019-04-21T18:40:53.050Z,48.10
2019-04-21T18:41:36.442Z,48.20
2019-04-21T18:42:47.799Z,48.20
2019-04-21T18:44:32.206Z,48.80
2019-04-21T18:46:13.607Z,48.30
2019-04-21T18:46:53.670Z,48.20
2019-04-21T18:47:48.922Z,48.20
2019-04-21T18:48:41.221Z,48.30
2019-04-21T18:49:19.817Z,48.20
2019-04-21T18:50:21.873Z,48.20
2019-04-21T18:51:40.276Z,48.20
2019-04-21T18:52:42.785Z,48.20
2019-04-21T18:53:41.412Z,48.30
2019-04-21T18:54:28.919Z,48.10
2019-04-21T18:55:09.544Z,48.00
2019-04-21T18:55:43.693Z,48.10
2019-04-21T18:56:20.756Z,48.10
2019-04-21T18:57:10.732Z,48.20
2019-04-21T18:57:47.909Z,48.10
2019-04-21T18:58:28.646Z,48.20
2019-04-21T18:59:12.168Z,48.10
2019-04-21T18:59:53.372Z,48.00
2019-04-21T19:00:36.998Z,48.00
2019-04-21T19:01:22.861Z,47.80
2019-04-21T19:02:06.363Z,47.80
2019-04-21T19:02:47.715Z,47.80
2019-04-21T19:03:35.407Z,47.80
2019-04-21T19:04:14.390Z,47.80
2019-04-21T19:04:55.860Z,47.70
2019-04-21T19:05:39.754Z,47.60
2019-04-21T19:06:25.544Z,47.60
2019-04-21T19:07:12.722Z,47.60
2019-04-21T19:08:07.477Z,47.60
2019-04-21T19:08:46.809Z,47.50
2019-04-21T19:09:35.306Z,47.40
2019-04-21T19:10:30.975Z,47.50
2019-04-21T19:10:56.282Z,47.40
2019-04-21T19:11:33.229Z,47.50
2019-04-21T19:12:23.630Z,47.50
2019-04-21T19:14:16.106Z,47.60
2019-04-21T19:14:38.720Z,47.70
2019-04-21T19:15:22.134Z,47.60
2019-04-21T19:19:23.683Z,47.60
2019-04-21T19:19:56.409Z,47.70
2019-04-21T19:20:32.970Z,47.70
2019-04-21T19:21:12.740Z,47.70
2019-04-21T19:22:00.132Z,47.70
2019-04-21T19:22:38.811Z,47.70
2019-04-21T19:23:31.052Z,47.80
2019-04-21T19:24:15.607Z,48.20
2019-04-21T19:24:48.930Z,49.80
2019-04-21T19:25:25.854Z,51.00
2019-04-21T19:26:21.603Z,52.50
2019-04-21T19:27:01.663Z,53.50
2019-04-21T19:27:45.263Z,54.20
2019-04-21T19:28:19.526Z,54.90
2019-04-21T19:29:16.319Z,55.10
2019-04-21T19:29:52.203Z,54.50
2019-04-21T19:30:38.576Z,53.80
2019-04-21T19:31:17.146Z,53.50
2019-04-21T19:31:54.806Z,52.90
2019-04-21T19:32:33.180Z,52.60
2019-04-21T19:33:14.426Z,52.40
2019-04-21T19:33:54.486Z,52.10
2019-04-21T19:34:29.316Z,51.90
2019-04-21T19:35:07.893Z,51.70
2019-04-21T19:35:49.793Z,51.50
2019-04-21T19:36:32.700Z,51.30
2019-04-21T19:37:20.006Z,51.00
2019-04-21T19:38:02.114Z,50.90
2019-04-21T19:38:49.265Z,50.80
2019-04-21T19:39:34.973Z,50.60
2019-04-21T19:40:15.840Z,50.50
2019-04-21T19:41:01.989Z,51.20
2019-04-21T19:41:45.740Z,52.80
2019-04-21T19:42:25.578Z,54.30
2019-04-21T19:43:07.830Z,55.30
2019-04-21T19:44:02.515Z,56.00
2019-04-21T19:44:42.310Z,56.40
2019-04-21T19:45:22.523Z,56.50
2019-04-21T19:46:11.765Z,55.90
2019-04-21T19:46:50.888Z,55.10
2019-04-21T19:47:41.858Z,54.50
2019-04-21T19:48:15.321Z,54.10
2019-04-21T19:49:10.499Z,53.80
2019-04-21T19:49:45.272Z,53.60
2019-04-21T19:50:28.500Z,53.20
2019-04-21T19:51:10.570Z,53.00
2019-04-21T19:51:46.303Z,52.70
2019-04-21T19:52:32.052Z,52.50
2019-04-21T19:53:20.017Z,52.30
2019-04-21T19:53:56.334Z,52.00
2019-04-21T19:54:35.907Z,51.80
2019-04-21T19:55:14.113Z,51.60
2019-04-21T19:55:56.722Z,51.40
2019-04-21T19:56:40.838Z,52.30
2019-04-21T19:57:23.384Z,53.50
2019-04-21T19:58:05.214Z,54.90
2019-04-21T19:58:47.562Z,56.10
2019-04-21T19:59:36.753Z,56.70
2019-04-21T20:00:14.001Z,57.50
2019-04-21T20:00:57.481Z,57.60
2019-04-21T20:01:39.362Z,56.90
2019-04-21T20:02:20.515Z,56.10
2019-04-21T20:03:02.928Z,55.60
2019-04-21T20:03:48.662Z,55.80
2019-04-21T20:04:34.002Z,54.70
2019-04-21T20:05:15.407Z,54.30
2019-04-21T20:06:00.487Z,54.10
2019-04-21T20:06:50.261Z,53.60
2019-04-21T20:07:27.569Z,53.30
2019-04-21T20:08:17.349Z,53.00
2019-04-21T20:08:59.108Z,52.70
2019-04-21T20:09:40.712Z,52.50
2019-04-21T20:10:32.808Z,52.20
2019-04-21T20:11:13.504Z,51.90
2019-04-21T20:11:48.747Z,51.70
2019-04-21T20:12:39.791Z,51.70
2019-04-21T20:13:25.938Z,51.40
2019-04-21T20:14:35.358Z,52.50
2019-04-21T20:14:55.313Z,53.50
2019-04-21T20:15:35.880Z,55.10
2019-04-21T20:16:15.076Z,56.00
2019-04-21T20:16:49.385Z,56.80
2019-04-21T20:17:34.791Z,57.50
2019-04-21T20:18:12.106Z,58.20
2019-04-21T20:18:52.913Z,56.90
2019-04-21T20:19:26.705Z,56.20
2019-04-21T20:20:08.880Z,55.60
2019-04-21T20:20:50.233Z,55.30
2019-04-21T20:21:31.154Z,54.90
2019-04-21T20:22:11.734Z,54.40
2019-04-21T20:22:53.815Z,54.20
2019-04-21T20:23:40.621Z,53.80
2019-04-21T20:24:23.295Z,53.50
2019-04-21T20:25:09.905Z,53.20
2019-04-21T20:25:49.824Z,52.80
2019-04-21T20:26:37.686Z,52.70
2019-04-21T20:27:19.799Z,52.40
2019-04-21T20:28:05.486Z,52.30
2019-04-21T20:28:48.855Z,53.60
2019-04-21T20:29:37.484Z,54.80
2019-04-21T20:30:21.085Z,56.10
2019-04-21T20:31:06.590Z,56.90
2019-04-21T20:31:45.996Z,57.60
2019-04-21T20:32:31.275Z,58.30
2019-04-21T20:33:36.992Z,58.80
2019-04-21T20:34:00.154Z,59.50
2019-04-21T20:34:38.676Z,58.60
2019-04-21T20:35:32.405Z,58.10
2019-04-21T20:36:09.517Z,57.10
2019-04-21T20:36:51.869Z,56.70
2019-04-21T20:37:26.552Z,56.00
2019-04-21T20:38:07.267Z,55.70
2019-04-21T20:38:47.050Z,55.30
2019-04-21T20:39:28.359Z,54.80
2019-04-21T20:40:19.713Z,54.50
2019-04-21T20:40:59.137Z,54.10
2019-04-21T20:41:43.942Z,53.70
2019-04-21T20:42:23.817Z,53.50
2019-04-21T20:43:22.429Z,53.20
2019-04-21T20:44:02.483Z,52.90
2019-04-21T20:44:43.743Z,52.70
2019-04-21T20:46:03.617Z,54.20
2019-04-21T20:46:45.929Z,55.50
2019-04-21T20:47:20.001Z,56.60
2019-04-21T20:47:54.634Z,57.30
2019-04-21T20:48:46.565Z,57.90
2019-04-21T20:49:31.634Z,58.40
2019-04-21T20:50:16.409Z,59.10
2019-04-21T20:51:06.570Z,59.80
2019-04-21T20:51:46.863Z,60.60
2019-04-21T20:52:29.410Z,59.20
2019-04-21T20:53:11.192Z,58.60
2019-04-21T20:53:50.871Z,57.70
2019-04-21T20:54:34.947Z,57.30
2019-04-21T20:55:15.544Z,56.70
2019-04-21T20:55:59.288Z,56.30
2019-04-21T20:56:43.848Z,55.80
2019-04-21T20:57:26.094Z,55.50
2019-04-21T20:58:04.236Z,55.00
2019-04-21T20:58:51.870Z,54.70
2019-04-21T20:59:28.636Z,54.20
2019-04-21T21:00:16.861Z,54.00
2019-04-21T21:01:58.305Z,53.30
2019-04-21T21:02:20.121Z,53.10
2019-04-21T21:03:07.105Z,52.90
2019-04-21T21:03:50.568Z,52.70
2019-04-21T21:04:28.128Z,53.40
2019-04-21T21:05:10.452Z,54.50
2019-04-21T21:05:53.015Z,56.00
2019-04-21T21:06:49.619Z,56.80
2019-04-21T21:07:40.212Z,57.80
2019-04-21T21:08:21.518Z,58.50
2019-04-21T21:08:56.875Z,59.20
2019-04-21T21:09:32.404Z,59.70
2019-04-21T21:10:16.920Z,59.70
2019-04-21T21:10:55.179Z,58.70
2019-04-21T21:11:53.548Z,58.00
2019-04-21T21:13:22.245Z,56.90
2019-04-21T21:14:05.733Z,56.30
2019-04-21T21:14:36.456Z,55.80
2019-04-21T21:15:09.998Z,55.40
2019-04-21T21:16:13.986Z,55.10
2019-04-21T21:16:50.740Z,54.70
2019-04-21T21:18:26.255Z,54.10
2019-04-21T21:19:10.599Z,54.00
2019-04-21T21:19:40.068Z,54.80
2019-04-21T21:20:29.470Z,55.80
2019-04-21T21:21:04.575Z,57.40
2019-04-21T21:21:45.673Z,58.00
2019-04-21T21:22:35.115Z,58.80
2019-04-21T21:23:11.942Z,59.40
2019-04-21T21:23:58.927Z,59.90
2019-04-21T21:24:55.796Z,60.80
2019-04-21T21:25:34.080Z,60.70
2019-04-21T21:26:11.496Z,59.40
2019-04-21T21:26:48.616Z,58.70
2019-04-21T21:27:30.858Z,57.90
2019-04-21T21:28:07.729Z,57.40
2019-04-21T21:28:51.992Z,56.80
2019-04-21T21:29:33.565Z,56.30
2019-04-21T21:30:18.647Z,55.90
2019-04-21T21:31:08.408Z,55.50
2019-04-21T21:31:47.528Z,55.20
2019-04-21T21:32:34.292Z,54.70
2019-04-21T21:33:13.651Z,54.40
2019-04-21T21:34:02.394Z,54.50
2019-04-21T21:35:17.864Z,56.70
2019-04-21T21:36:06.437Z,57.90
2019-04-21T21:36:51.100Z,58.80
2019-04-21T21:37:36.835Z,59.30
2019-04-21T21:38:13.132Z,59.90
2019-04-21T21:38:55.889Z,60.40
2019-04-21T21:39:48.711Z,61.50
2019-04-21T21:40:22.234Z,62.00
2019-04-21T21:40:56.928Z,61.80
2019-04-21T21:41:33.555Z,60.40
2019-04-21T21:42:13.936Z,59.30
2019-04-21T21:42:55.348Z,58.80
2019-04-21T21:43:37.776Z,58.00
2019-04-21T21:44:21.246Z,57.50
2019-04-21T21:45:06.117Z,57.00
2019-04-21T21:45:50.335Z,56.60
2019-04-21T21:46:40.333Z,56.10
2019-04-21T21:47:19.166Z,55.50
2019-04-21T21:48:06.914Z,55.40
2019-04-21T21:48:44.961Z,54.90
2019-04-21T21:49:29.424Z,54.60
2019-04-21T21:50:08.879Z,54.20
2019-04-21T21:50:50.942Z,54.50
2019-04-21T21:51:38.395Z,55.70